Flight Track Log - Related Links

Times and Time Zones

All times are in EDT time to prevent confusion due to time zone crossing. See the N8163Y flight status page for this flight to view local times or setup timezone preferences in your user account.


Time Position Orientation Groundspeed Altitude Reporting Facility
EDT Latitude Longitude Course Direction KTS MPH feet Rate Location/Type
Mon 03:47:00 PM 48.3502 -93.3893 180° South  Level Estimated
Mon 03:48:00 PM 48.3143 -93.3872 180° South  Level Estimated
Mon 03:49:00 PM 48.2794 -93.3999 194° South  Level FlightAware Approximate
Mon 03:49:16 PM 48.4719 -93.4183 186° South 95 109 2,000  Level Minneapolis Center
Mon 03:50:00 PM 48.2435 -93.3976 183° South  Level Estimated
Mon 03:50:18 PM 48.4442 -93.4197 182° South 98 113 4,600  Level Minneapolis Center
Mon 03:51:00 PM 48.2077 -93.4029 186° South  Level FlightAware Approximate
Mon 03:51:20 PM 48.4172 -93.4167 176° South 98 113 4,800  Level Minneapolis Center
Mon 03:52:00 PM 48.1719 -93.4081 186° South  Level FlightAware Approximate
Mon 03:52:23 PM 48.3869 -93.4144 177° South 102 117 5,600  Level Minneapolis Center
Mon 03:53:00 PM 48.1362 -93.4134 186° South  Level FlightAware Approximate
Mon 03:53:25 PM 48.3564 -93.4142 180° South 106 122 5,800  Level Minneapolis Center
Mon 03:54:00 PM 48.1004 -93.4186 186° South  Level FlightAware Approximate
Mon 03:54:27 PM 48.3244 -93.4136 179° South 111 128 6,300  Level Minneapolis Center
Mon 03:55:29 PM 48.2869 -93.4078 174° South 113 130 6,800 387 Climbing Minneapolis Center
Mon 03:56:31 PM 48.2533 -93.4025 174° South 116 133 7,100 145 Climbing Minneapolis Center
Mon 03:57:33 PM 48.2181 -93.4003 178° South 121 139 7,100  Level Minneapolis Center
Mon 03:58:35 PM 48.1803 -93.3981 178° South 128 147 7,100  Level Minneapolis Center
Mon 03:59:37 PM 48.1422 -93.3981 180° South 133 153 7,100  Level Minneapolis Center
Mon 04:00:39 PM 48.1053 -93.3975 179° South 134 154 7,100 -48 Level Minneapolis Center
Mon 04:01:42 PM 48.0608 -93.3958 179° South 134 154 7,000 -48 Descending Minneapolis Center
Mon 04:02:44 PM 48.0233 -93.3947 179° South 134 154 7,000  Level Minneapolis Center
Mon 04:03:46 PM 47.9869 -93.3883 173° South 133 153 7,000  Level Minneapolis Center
Mon 04:04:48 PM 47.9506 -93.3853 177° South 133 153 7,000  Level Minneapolis Center
Mon 04:05:50 PM 47.9139 -93.3819 177° South 132 152 7,000  Level Minneapolis Center
Mon 04:06:52 PM 47.8697 -93.3789 177° South 133 153 7,000  Level Minneapolis Center
Mon 04:07:54 PM 47.8325 -93.3761 177° South 133 153 7,000  Level Minneapolis Center
Mon 04:08:56 PM 47.7958 -93.3728 177° South 133 153 7,000  Level Minneapolis Center
Mon 04:09:58 PM 47.7603 -93.3700 177° South 131 151 7,000  Level Minneapolis Center
Mon 04:11:00 PM 47.7242 -93.3667 176° South 130 150 7,000  Level Minneapolis Center
Mon 04:12:03 PM 47.6864 -93.3633 177° South 133 153 7,000  Level Minneapolis Center
Mon 04:13:05 PM 47.6419 -93.3606 178° South 134 154 7,000  Level Minneapolis Center
Mon 04:14:07 PM 47.6058 -93.3619 181° South 133 153 7,000  Level Minneapolis Center
Mon 04:15:09 PM 47.5689 -93.3633 181° South 133 153 7,000  Level Minneapolis Center
Mon 04:16:11 PM 47.5325 -93.3625 179° South 132 152 7,000  Level Minneapolis Center
Mon 04:17:13 PM 47.4953 -93.3569 174° South 132 152 7,000  Level Minneapolis Center
Mon 04:18:15 PM 47.4519 -93.3533 177° South 132 152 7,000  Level Minneapolis Center
Mon 04:19:17 PM 47.4158 -93.3500 176° South 132 152 7,000  Level Minneapolis Center
Mon 04:20:19 PM 47.3794 -93.3469 177° South 132 152 7,000  Level Minneapolis Center
Mon 04:21:21 PM 47.3422 -93.3439 177° South 134 154 7,000  Level Minneapolis Center
Mon 04:22:24 PM 47.3061 -93.3403 176° South 133 153 7,000  Level Minneapolis Center
Mon 04:23:26 PM 47.2614 -93.3392 179° South 133 153 7,000  Level Minneapolis Center
Mon 04:24:28 PM 47.2242 -93.3389 180° South 134 154 7,000  Level Minneapolis Center
Mon 04:25:30 PM 47.1875 -93.3378 179° South 133 153 7,000  Level Minneapolis Center
Mon 04:26:32 PM 47.1503 -93.3367 179° South 133 153 7,000  Level Minneapolis Center
Mon 04:27:34 PM 47.1131 -93.3358 179° South 134 154 7,000  Level Minneapolis Center
Mon 04:28:36 PM 47.0683 -93.3297 175° South 135 155 7,000  Level Minneapolis Center
Mon 04:29:38 PM 47.0308 -93.3258 176° South 135 155 7,000  Level Minneapolis Center
Mon 04:30:40 PM 46.9933 -93.3228 177° South 135 155 7,000  Level Minneapolis Center
Mon 04:31:42 PM 46.9561 -93.3186 176° South 135 155 7,000  Level Minneapolis Center
Mon 04:32:44 PM 46.9183 -93.3150 176° South 135 155 7,000  Level Minneapolis Center
Mon 04:33:47 PM 46.8803 -93.3114 176° South 136 157 7,000  Level Minneapolis Center
Mon 04:34:49 PM 46.8358 -93.3103 179° South 135 155 7,000  Level Minneapolis Center
Mon 04:35:51 PM 46.7981 -93.3117 181° South 136 157 7,000  Level Minneapolis Center
Mon 04:36:53 PM 46.7614 -93.3122 181° South 134 154 7,000  Level Minneapolis Center
Mon 04:37:55 PM 46.7236 -93.3128 181° South 135 155 7,000  Level Minneapolis Center
Mon 04:38:57 PM 46.6864 -93.3117 179° South 134 154 7,000  Level Minneapolis Center
Mon 04:39:59 PM 46.6419 -93.3061 175° South 134 154 7,000  Level Minneapolis Center
Mon 04:41:01 PM 46.6039 -93.3036 177° South 135 155 7,000  Level Minneapolis Center
Mon 04:42:03 PM 46.5672 -93.3006 177° South 135 155 7,000  Level Minneapolis Center
Mon 04:43:05 PM 46.5300 -93.2961 175° South 134 154 7,000  Level Minneapolis Center
Mon 04:44:07 PM 46.4922 -93.2947 179° South 135 155 7,000  Level Minneapolis Center
Mon 04:45:09 PM 46.4550 -93.2911 176° South 135 155 7,000  Level Minneapolis Center
Mon 04:46:11 PM 46.4097 -93.2864 176° South 136 157 7,000  Level Minneapolis Center
Mon 04:47:13 PM 46.3717 -93.2828 176° South 136 157 7,000  Level Minneapolis Center
Mon 04:48:16 PM 46.3339 -93.2803 177° South 137 158 7,000  Level Minneapolis Center
Mon 04:49:18 PM 46.2961 -93.2792 179° South 136 157 7,000  Level Minneapolis Center
Mon 04:50:20 PM 46.2594 -93.2778 178° South 134 154 7,000  Level Minneapolis Center
Mon 04:51:22 PM 46.2231 -93.2744 176° South 133 153 7,000  Level Minneapolis Center
Mon 04:52:24 PM 46.1811 -93.2692 175° South 129 148 7,000  Level Minneapolis Center
Mon 04:53:26 PM 46.1436 -93.2658 176° South 131 151 7,000  Level Minneapolis Center
Mon 04:54:28 PM 46.1053 -93.2639 178° South 135 155 7,000  Level Minneapolis Center
Mon 04:55:30 PM 46.0675 -93.2639 180° South 135 155 7,000  Level Minneapolis Center
Mon 04:56:32 PM 46.0303 -93.2622 178° South 135 155 7,000  Level Minneapolis Center
Mon 04:57:34 PM 45.9850 -93.2589 177° South 135 155 7,000  Level Minneapolis Center
Mon 04:58:36 PM 45.9461 -93.2578 179° South 137 158 7,000  Level Minneapolis Center
Mon 04:59:38 PM 45.9100 -93.2533 175° South 135 155 7,000  Level Minneapolis Center
Mon 05:00:40 PM 45.8728 -93.2528 179° South 133 153 7,000  Level Minneapolis Center
Mon 05:01:42 PM 45.8347 -93.2500 177° South 135 155 7,000  Level Minneapolis Center
Mon 05:02:44 PM 45.7972 -93.2475 177° South 135 155 7,000 -240 Level Minneapolis Center
Mon 05:03:47 PM 45.7494 -93.2447 178° South 143 165 6,500 -384 Descending Minneapolis Center
Mon 05:04:49 PM 45.7081 -93.2406 176° South 148 170 6,200 -387 Descending Minneapolis Center
Mon 05:05:51 PM 45.6681 -93.2403 180° South 142 163 5,700 -387 Descending Minneapolis Center
Mon 05:06:53 PM 45.6275 -93.2389 179° South 146 168 5,400 -484 Descending Minneapolis Center
Mon 05:07:55 PM 45.5872 -93.2372 178° South 145 167 4,700 -194 Descending Minneapolis Center
Mon 05:08:57 PM 45.5494 -93.2353 178° South 138 159 5,000 145 Climbing Minneapolis Center
Mon 05:09:59 PM 45.5058 -93.2339 179° South 131 151 5,000  Level Minneapolis Center
Mon 05:11:01 PM 45.4683 -93.2308 177° South 136 157 5,000 -145 Level Minneapolis Center
Mon 05:12:03 PM 45.4314 -93.2278 177° South 136 157 4,700 -339 Descending Minneapolis Center
Mon 05:13:05 PM 45.3908 -93.2250 177° South 145 167 4,300 -484 Descending Minneapolis Center
Mon 05:14:07 PM 45.3517 -93.2206 175° South 142 163 3,700 -532 Descending Minneapolis Center
Mon 05:15:09 PM 45.3144 -93.2200 179° South 135 155 3,200 -339 Descending Minneapolis Center
Mon 05:16:11 PM 45.2742 -93.2214 181° South 121 139 3,000 -242 Descending Minneapolis Center
Mon 05:17:13 PM 45.2394 -93.2186 177° South 124 143 2,700 -381 Descending Minneapolis Center
Mon 05:18:17 PM 45.2058 -93.1931 152° Southeast 135 155 2,200 -331 Descending Minneapolis Center
Mon 05:19:20 PM 45.1717 -93.1875 173° South 125 144 2,000 -240 Descending Minneapolis Center
Mon 05:20:22 PM 45.1342 -93.1844 177° South 113 130 1,700 -290 Descending Minneapolis Center
Mon 05:21:24 PM 45.1200 -93.2017 221° Southwest 82 94 1,400 -339 Descending Minneapolis Center
Mon 05:22:26 PM 45.1386 -93.2094 344° North 75 86 1,000 -387 Descending Minneapolis Center
Mon 05:24:00 PM 45.1333 -93.2000 270° West  Level FlightAware Approximate

Login

Don't have an account? Register now (free) for customized features, flight alerts, and more!